createdAt,value
2019-04-19T00:00:22.811Z,11.50
2019-04-19T00:02:50.663Z,11.50
2019-04-19T00:05:20.056Z,11.50
2019-04-19T00:07:51.494Z,11.40
2019-04-19T00:10:26.197Z,11.40
2019-04-19T00:12:50.374Z,11.40
2019-04-19T00:15:11.795Z,11.30
2019-04-19T00:17:38.487Z,11.30
2019-04-19T00:20:31.435Z,11.30
2019-04-19T00:22:48.296Z,11.20
2019-04-19T00:25:04.938Z,11.10
2019-04-19T00:27:39.587Z,11.10
2019-04-19T00:30:14.177Z,11.00
2019-04-19T00:32:38.062Z,11.00
2019-04-19T00:34:56.785Z,10.90
2019-04-19T00:37:23.077Z,10.90
2019-04-19T00:40:18.083Z,10.80
2019-04-19T00:42:58.680Z,10.80
2019-04-19T00:45:31.149Z,10.80
2019-04-19T00:48:03.028Z,10.70
2019-04-19T00:50:28.256Z,10.70
2019-04-19T00:53:04.182Z,10.60
2019-04-19T00:55:19.710Z,10.50
2019-04-19T00:57:48.277Z,10.50
2019-04-19T01:00:17.342Z,10.40
2019-04-19T01:02:44.120Z,10.40
2019-04-19T01:05:13.274Z,10.30
2019-04-19T01:07:38.710Z,10.20
2019-04-19T01:10:20.000Z,10.10
2019-04-19T01:12:48.022Z,10.10
2019-04-19T01:15:15.693Z,10.00
2019-04-19T01:17:47.547Z,9.90
2019-04-19T01:20:02.056Z,9.90
2019-04-19T01:22:29.423Z,9.80
2019-04-19T01:24:54.535Z,9.70
2019-04-19T01:27:27.404Z,9.70
2019-04-19T01:29:53.366Z,9.70
2019-04-19T01:32:19.858Z,9.60
2019-04-19T01:34:48.553Z,9.60
2019-04-19T01:37:18.671Z,9.50
2019-04-19T01:40:00.806Z,9.50
2019-04-19T01:42:24.714Z,9.40
2019-04-19T01:45:01.217Z,9.40
2019-04-19T01:47:42.032Z,9.30
2019-04-19T01:50:15.072Z,9.30
2019-04-19T01:52:52.956Z,9.20
2019-04-19T01:55:10.049Z,9.20
2019-04-19T01:57:28.349Z,9.10
2019-04-19T01:59:57.582Z,9.10
2019-04-19T02:02:25.985Z,9.10
2019-04-19T02:04:58.219Z,9.00
2019-04-19T02:07:24.210Z,9.00
2019-04-19T02:10:02.746Z,9.00
2019-04-19T02:12:29.442Z,9.00
2019-04-19T02:14:53.903Z,9.00
2019-04-19T02:17:16.030Z,9.00
2019-04-19T02:19:48.126Z,8.90
2019-04-19T02:22:16.917Z,8.90
2019-04-19T02:24:42.401Z,8.90
2019-04-19T02:27:09.678Z,8.80
2019-04-19T02:29:35.120Z,8.80
2019-04-19T02:37:23.223Z,8.70
2019-04-19T02:42:35.156Z,8.60
2019-04-19T02:44:58.803Z,8.60
2019-04-19T02:52:21.516Z,8.40
2019-04-19T02:55:07.781Z,8.40
2019-04-19T03:00:29.931Z,8.30
2019-04-19T03:05:37.026Z,8.20
2019-04-19T03:07:30.318Z,8.10
2019-04-19T03:09:56.493Z,8.10
2019-04-19T03:12:42.711Z,8.00
2019-04-19T03:15:05.332Z,8.00
2019-04-19T03:17:43.519Z,7.90
2019-04-19T03:20:05.174Z,7.90
2019-04-19T03:22:28.464Z,7.80
2019-04-19T03:25:03.551Z,7.80
2019-04-19T03:27:20.897Z,7.70
2019-04-19T03:29:43.847Z,7.70
2019-04-19T03:32:49.171Z,7.70
2019-04-19T03:35:00.692Z,7.60
2019-04-19T03:37:26.563Z,7.60
2019-04-19T03:40:02.215Z,7.50
2019-04-19T03:42:40.615Z,7.50
2019-04-19T03:45:06.844Z,7.40
2019-04-19T03:47:42.536Z,7.40
2019-04-19T03:50:04.541Z,7.30
2019-04-19T03:52:35.750Z,7.30
2019-04-19T03:54:57.389Z,7.30
2019-04-19T03:57:23.397Z,7.20
2019-04-19T03:59:37.271Z,7.20
2019-04-19T04:02:04.276Z,7.20
2019-04-19T04:04:34.816Z,7.20
2019-04-19T04:07:10.388Z,7.10
2019-04-19T04:09:34.680Z,7.10
2019-04-19T04:12:17.014Z,7.10
2019-04-19T04:14:52.620Z,7.00
2019-04-19T04:17:05.802Z,7.00
2019-04-19T04:19:33.593Z,7.00
2019-04-19T04:22:00.724Z,7.00
2019-04-19T04:24:32.966Z,7.00
2019-04-19T04:27:05.787Z,7.00
2019-04-19T04:29:32.552Z,6.90
2019-04-19T04:32:04.530Z,6.90
2019-04-19T04:34:36.666Z,7.00
2019-04-19T04:37:05.289Z,6.90
2019-04-19T04:39:17.480Z,6.90
2019-04-19T04:41:46.019Z,6.90
2019-04-19T04:44:29.524Z,6.90
2019-04-19T04:47:19.648Z,6.90
2019-04-19T04:49:59.664Z,6.90
2019-04-19T04:55:11.507Z,7.00
2019-04-19T04:57:45.810Z,7.10
2019-04-19T05:00:07.943Z,7.20
2019-04-19T05:02:53.649Z,7.20
2019-04-19T05:05:24.611Z,7.20
2019-04-19T05:08:00.061Z,7.30
2019-04-19T05:10:20.144Z,7.40
2019-04-19T05:15:22.625Z,7.70
2019-04-19T05:17:58.276Z,7.80
2019-04-19T05:20:17.207Z,8.00
2019-04-19T05:22:43.078Z,8.20
2019-04-19T05:25:29.260Z,8.40
2019-04-19T05:27:46.544Z,8.70
2019-04-19T05:29:55.830Z,9.00
2019-04-19T05:32:28.082Z,9.30
2019-04-19T05:35:04.687Z,9.80
2019-04-19T05:37:44.933Z,10.50
2019-04-19T05:40:10.726Z,11.30
2019-04-19T05:42:42.117Z,12.20
2019-04-19T05:45:35.157Z,13.10
2019-04-19T05:47:33.265Z,13.90
2019-04-19T05:50:07.055Z,14.80
2019-04-19T05:52:37.139Z,15.50
2019-04-19T05:54:45.096Z,16.30
2019-04-19T05:57:33.683Z,16.90
2019-04-19T05:59:49.902Z,17.50
2019-04-19T06:02:18.033Z,18.10
2019-04-19T06:05:01.357Z,18.40
2019-04-19T06:07:21.706Z,18.80
2019-04-19T06:09:32.773Z,19.30
2019-04-19T06:12:04.526Z,19.70
2019-04-19T06:14:53.451Z,19.90
2019-04-19T06:17:31.334Z,20.00
2019-04-19T06:20:08.440Z,20.00
2019-04-19T06:22:33.768Z,20.00
2019-04-19T06:25:04.666Z,20.00
2019-04-19T06:27:43.870Z,20.20
2019-04-19T06:30:05.771Z,20.40
2019-04-19T06:32:36.261Z,20.50
2019-04-19T06:34:55.194Z,20.70
2019-04-19T06:37:14.407Z,20.90
2019-04-19T06:39:35.548Z,21.10
2019-04-19T06:42:07.358Z,21.20
2019-04-19T06:44:52.762Z,21.30
2019-04-19T06:47:09.314Z,21.30
2019-04-19T06:49:29.790Z,21.10
2019-04-19T06:52:03.853Z,20.80
2019-04-19T06:54:28.570Z,20.60
2019-04-19T06:57:03.261Z,20.70
2019-04-19T06:59:37.095Z,20.70
2019-04-19T07:01:52.717Z,20.50
2019-04-19T07:04:16.935Z,20.70
2019-04-19T07:07:06.702Z,20.60
2019-04-19T07:09:37.155Z,20.50
2019-04-19T07:12:02.213Z,20.40
2019-04-19T07:14:14.627Z,20.10
2019-04-19T07:16:59.974Z,20.10
2019-04-19T07:19:26.135Z,20.20
2019-04-19T07:21:48.320Z,20.30
2019-04-19T07:24:32.280Z,20.40
2019-04-19T07:26:46.941Z,20.60
2019-04-19T07:28:57.964Z,20.70
2019-04-19T07:31:24.272Z,20.70
2019-04-19T07:34:06.081Z,20.60
2019-04-19T07:36:40.355Z,20.40
2019-04-19T07:39:21.669Z,20.40
2019-04-19T07:41:34.064Z,20.50
2019-04-19T07:44:16.285Z,20.60
2019-04-19T07:46:53.286Z,20.50
2019-04-19T07:49:00.196Z,20.50
2019-04-19T07:51:32.455Z,20.50
2019-04-19T07:53:57.200Z,20.50
2019-04-19T07:56:35.729Z,20.50
2019-04-19T07:59:18.060Z,20.70
2019-04-19T08:01:53.626Z,20.70
2019-04-19T08:04:17.780Z,20.70
2019-04-19T08:09:16.420Z,20.80
2019-04-19T08:17:07.294Z,21.00
2019-04-19T08:28:41.095Z,20.80
2019-04-19T08:31:02.559Z,20.80
2019-04-19T08:33:27.630Z,21.00
2019-04-19T08:35:57.096Z,21.10
2019-04-19T08:38:25.583Z,21.30
2019-04-19T08:41:06.250Z,21.40
2019-04-19T08:43:37.974Z,21.50
2019-04-19T08:45:55.295Z,21.50
2019-04-19T08:48:47.806Z,21.60
2019-04-19T08:51:21.181Z,21.80
2019-04-19T08:53:57.458Z,22.00
2019-04-19T08:56:27.575Z,22.10
2019-04-19T08:58:54.384Z,22.00
2019-04-19T09:01:33.062Z,22.10
2019-04-19T09:03:58.248Z,22.10
2019-04-19T09:07:15.619Z,21.90
2019-04-19T09:08:52.277Z,21.90
2019-04-19T09:11:21.006Z,22.00
2019-04-19T09:13:51.737Z,22.00
2019-04-19T09:16:18.029Z,22.00
2019-04-19T09:18:51.713Z,21.90
2019-04-19T09:21:16.952Z,22.00
2019-04-19T09:23:35.068Z,22.10
2019-04-19T09:26:06.075Z,22.10
2019-04-19T09:28:56.519Z,22.10
2019-04-19T09:31:04.397Z,22.20
2019-04-19T09:33:25.658Z,22.30
2019-04-19T09:35:56.105Z,22.40
2019-04-19T09:38:28.951Z,22.50
2019-04-19T09:40:50.387Z,22.50
2019-04-19T09:43:24.220Z,22.50
2019-04-19T09:45:38.638Z,22.60
2019-04-19T09:48:05.450Z,22.70
2019-04-19T09:50:47.030Z,22.60
2019-04-19T09:53:33.186Z,22.70
2019-04-19T09:55:49.719Z,22.80
2019-04-19T09:58:17.203Z,22.80
2019-04-19T10:00:29.944Z,22.90
2019-04-19T10:02:58.936Z,23.00
2019-04-19T10:05:23.957Z,23.10
2019-04-19T10:07:50.702Z,23.20
2019-04-19T10:10:17.143Z,23.20
2019-04-19T10:12:43.504Z,23.10
2019-04-19T10:15:28.038Z,23.10
2019-04-19T10:17:54.429Z,23.20
2019-04-19T10:20:28.867Z,23.40
2019-04-19T10:22:58.055Z,23.50
2019-04-19T10:25:25.504Z,23.50
2019-04-19T10:27:51.972Z,23.50
2019-04-19T10:30:24.394Z,23.40
2019-04-19T10:32:53.125Z,23.20
2019-04-19T10:35:19.799Z,23.00
2019-04-19T10:37:46.323Z,23.10
2019-04-19T10:40:13.682Z,23.10
2019-04-19T10:42:41.184Z,23.00
2019-04-19T10:45:10.001Z,22.80
2019-04-19T10:47:37.551Z,22.60
2019-04-19T10:50:18.107Z,22.60
2019-04-19T10:52:35.325Z,22.60
2019-04-19T10:55:02.410Z,22.70
2019-04-19T10:57:29.691Z,22.70
2019-04-19T11:00:00.721Z,22.60
2019-04-19T11:02:29.833Z,22.40
2019-04-19T11:04:56.769Z,22.30
2019-04-19T11:07:23.815Z,22.30
2019-04-19T11:09:53.490Z,22.30
2019-04-19T11:12:20.389Z,22.20
2019-04-19T11:14:48.265Z,22.20
2019-04-19T11:17:15.922Z,22.10
2019-04-19T11:19:55.898Z,22.10
2019-04-19T11:22:11.840Z,22.00
2019-04-19T11:24:39.230Z,21.80
2019-04-19T11:27:06.799Z,21.70
2019-04-19T11:29:34.403Z,21.50
2019-04-19T11:32:12.221Z,21.50
2019-04-19T11:34:40.670Z,21.50
2019-04-19T11:37:09.172Z,21.50
2019-04-19T11:39:35.403Z,21.30
2019-04-19T11:42:03.256Z,21.30
2019-04-19T11:44:30.992Z,21.30
2019-04-19T11:46:58.302Z,21.30
2019-04-19T11:49:32.212Z,21.30
2019-04-19T11:51:53.249Z,21.30
2019-04-19T11:54:20.714Z,21.20
2019-04-19T11:57:07.145Z,21.20
2019-04-19T11:59:45.787Z,21.20
2019-04-19T12:02:23.939Z,21.10
2019-04-19T12:04:50.836Z,21.10
2019-04-19T12:07:17.149Z,21.10
2019-04-19T12:09:44.749Z,21.20
2019-04-19T12:12:12.880Z,21.20
2019-04-19T12:14:39.897Z,21.20
2019-04-19T12:17:07.050Z,21.20
2019-04-19T12:19:39.811Z,21.20
2019-04-19T12:22:01.558Z,21.20
2019-04-19T12:24:28.839Z,21.20
2019-04-19T12:26:55.652Z,21.20
2019-04-19T12:29:30.253Z,21.20
2019-04-19T12:31:50.040Z,21.20
2019-04-19T12:34:16.405Z,21.20
2019-04-19T12:36:43.403Z,21.20
2019-04-19T12:39:09.799Z,21.20
2019-04-19T12:41:38.131Z,21.20
2019-04-19T12:44:24.977Z,21.20
2019-04-19T12:46:52.880Z,21.20
2019-04-19T12:49:20.524Z,21.20
2019-04-19T12:51:48.023Z,21.20
2019-04-19T12:54:14.360Z,21.20
2019-04-19T12:56:44.286Z,21.20
2019-04-19T12:59:17.316Z,21.10
2019-04-19T13:01:48.514Z,21.00
2019-04-19T13:04:17.908Z,21.00
2019-04-19T13:07:02.137Z,20.90
2019-04-19T13:09:28.741Z,20.90
2019-04-19T13:11:55.173Z,21.00
2019-04-19T13:14:21.784Z,21.00
2019-04-19T13:16:48.457Z,21.10
2019-04-19T13:19:16.245Z,21.10
2019-04-19T13:21:42.816Z,21.20
2019-04-19T13:24:09.044Z,21.20
2019-04-19T13:26:35.683Z,21.20
2019-04-19T13:29:02.193Z,21.20
2019-04-19T13:31:29.022Z,21.20
2019-04-19T13:33:55.400Z,21.20
2019-04-19T13:36:28.521Z,21.20
2019-04-19T13:38:59.791Z,21.20
2019-04-19T13:41:29.205Z,21.10
2019-04-19T13:43:56.498Z,21.10
2019-04-19T13:46:24.530Z,21.10
2019-04-19T13:48:52.592Z,21.10
2019-04-19T13:51:20.550Z,21.10
2019-04-19T13:53:47.474Z,21.10
2019-04-19T13:56:14.903Z,21.00
2019-04-19T13:58:41.210Z,21.00
2019-04-19T14:01:07.600Z,21.00
2019-04-19T14:03:39.510Z,21.00
2019-04-19T14:06:06.525Z,21.00
2019-04-19T14:08:34.103Z,21.00
2019-04-19T14:11:01.418Z,21.00
2019-04-19T14:13:28.019Z,21.00
2019-04-19T14:15:54.814Z,21.10
2019-04-19T14:18:22.338Z,21.10
2019-04-19T14:20:52.271Z,21.10
2019-04-19T14:23:21.684Z,21.10
2019-04-19T14:25:49.461Z,21.10
2019-04-19T14:28:17.661Z,21.10
2019-04-19T14:30:45.135Z,21.10
2019-04-19T14:33:12.744Z,21.10
2019-04-19T14:35:39.858Z,21.10
2019-04-19T14:38:07.543Z,21.10
2019-04-19T14:40:35.375Z,21.10
2019-04-19T14:43:02.557Z,21.10
2019-04-19T14:45:30.310Z,21.10
2019-04-19T14:47:57.101Z,21.00
2019-04-19T14:50:23.626Z,21.00
2019-04-19T14:52:53.664Z,21.00
2019-04-19T14:55:21.114Z,21.00
2019-04-19T14:57:47.717Z,21.00
2019-04-19T15:00:20.972Z,21.00
2019-04-19T15:02:50.542Z,21.00
2019-04-19T15:05:34.130Z,20.90
2019-04-19T15:08:02.171Z,20.90
2019-04-19T15:10:29.365Z,20.90
2019-04-19T15:12:56.696Z,20.90
2019-04-19T15:15:24.454Z,20.90
2019-04-19T15:17:51.891Z,20.90
2019-04-19T15:20:22.252Z,20.90
2019-04-19T15:22:50.434Z,20.90
2019-04-19T15:25:21.609Z,20.90
2019-04-19T15:27:48.740Z,20.90
2019-04-19T15:30:19.396Z,20.80
2019-04-19T15:32:46.572Z,20.90
2019-04-19T15:35:17.070Z,20.90
2019-04-19T15:37:43.633Z,20.90
2019-04-19T15:40:16.050Z,20.90
2019-04-19T15:42:42.958Z,20.90
2019-04-19T15:45:11.347Z,20.80
2019-04-19T15:47:39.035Z,20.80
2019-04-19T15:50:07.465Z,20.80
2019-04-19T15:52:37.855Z,20.80
2019-04-19T15:55:08.127Z,20.70
2019-04-19T15:57:34.700Z,20.70
2019-04-19T16:00:02.449Z,20.70
2019-04-19T16:02:34.311Z,20.70
2019-04-19T16:05:06.243Z,20.60
2019-04-19T16:07:39.970Z,20.60
2019-04-19T16:10:26.576Z,20.60
2019-04-19T16:12:58.026Z,20.60
2019-04-19T16:15:26.760Z,20.50
2019-04-19T16:17:53.072Z,20.50
2019-04-19T16:20:21.063Z,20.50
2019-04-19T16:22:49.939Z,20.50
2019-04-19T16:25:17.076Z,20.50
2019-04-19T16:27:45.209Z,20.50
2019-04-19T16:30:14.167Z,20.40
2019-04-19T16:32:41.320Z,20.40
2019-04-19T16:35:08.209Z,20.40
2019-04-19T16:37:34.909Z,20.40
2019-04-19T16:40:02.604Z,20.40
2019-04-19T16:42:29.512Z,20.40
2019-04-19T16:44:56.231Z,20.40
2019-04-19T16:47:23.591Z,20.40
2019-04-19T16:49:49.950Z,20.30
2019-04-19T16:52:16.287Z,20.30
2019-04-19T16:54:43.940Z,20.20
2019-04-19T16:57:25.130Z,20.20
2019-04-19T16:59:48.111Z,20.20
2019-04-19T17:02:15.158Z,20.20
2019-04-19T17:04:42.611Z,20.10
2019-04-19T17:07:09.422Z,20.10
2019-04-19T17:09:36.581Z,20.10
2019-04-19T17:12:03.808Z,20.10
2019-04-19T17:14:30.736Z,20.00
2019-04-19T17:17:05.027Z,20.00
2019-04-19T17:19:38.997Z,19.90
2019-04-19T17:22:11.990Z,20.00
2019-04-19T17:28:12.673Z,19.90
2019-04-19T17:30:40.140Z,19.80
2019-04-19T17:33:08.242Z,19.80
2019-04-19T17:35:34.870Z,19.80
2019-04-19T17:38:02.735Z,19.70
2019-04-19T17:40:29.218Z,19.70
2019-04-19T17:42:55.791Z,19.70
2019-04-19T17:45:23.380Z,19.60
2019-04-19T17:47:50.314Z,19.60
2019-04-19T17:50:18.860Z,19.60
2019-04-19T17:52:46.513Z,19.50
2019-04-19T17:55:20.500Z,19.40
2019-04-19T17:57:41.386Z,19.40
2019-04-19T18:00:08.359Z,19.30
2019-04-19T18:03:56.297Z,19.30
2019-04-19T18:06:25.910Z,19.30
2019-04-19T18:09:01.512Z,19.10
2019-04-19T18:11:25.136Z,19.10
2019-04-19T18:13:49.112Z,19.00
2019-04-19T18:16:16.543Z,19.00
2019-04-19T18:18:47.452Z,18.90
2019-04-19T18:21:12.348Z,18.90
2019-04-19T18:23:47.569Z,18.80
2019-04-19T18:26:17.618Z,18.80
2019-04-19T18:28:41.318Z,18.70
2019-04-19T18:31:08.222Z,18.60
2019-04-19T18:33:35.891Z,18.60
2019-04-19T18:36:08.540Z,18.50
2019-04-19T18:38:33.695Z,18.50
2019-04-19T18:41:00.985Z,18.40
2019-04-19T18:43:35.539Z,18.30
2019-04-19T18:45:59.943Z,18.20
2019-04-19T18:48:27.302Z,18.20
2019-04-19T18:50:54.090Z,18.10
2019-04-19T18:53:32.880Z,18.00
2019-04-19T18:55:53.576Z,18.00
2019-04-19T18:58:25.998Z,17.90
2019-04-19T19:00:50.701Z,17.90
2019-04-19T19:03:17.884Z,17.80
2019-04-19T19:05:50.227Z,17.80
2019-04-19T19:08:18.897Z,17.70
2019-04-19T19:10:45.114Z,17.70
2019-04-19T19:13:09.125Z,17.50
2019-04-19T19:15:43.244Z,17.50
2019-04-19T19:18:04.571Z,17.40
2019-04-19T19:20:36.894Z,17.30
2019-04-19T19:23:18.231Z,17.30
2019-04-19T19:25:43.825Z,17.20
2019-04-19T19:28:04.696Z,17.20
2019-04-19T19:30:31.373Z,17.10
2019-04-19T19:33:06.468Z,17.00
2019-04-19T19:35:30.514Z,17.00
2019-04-19T19:37:57.157Z,16.90
2019-04-19T19:40:33.590Z,16.80
2019-04-19T19:43:11.686Z,16.80
2019-04-19T19:45:36.460Z,16.70
2019-04-19T19:48:26.003Z,16.60
2019-04-19T19:50:58.628Z,16.60
2019-04-19T19:53:35.439Z,16.60
2019-04-19T19:55:53.365Z,16.50
2019-04-19T19:58:12.136Z,16.50
2019-04-19T20:00:40.887Z,16.50
2019-04-19T20:03:04.039Z,16.40
2019-04-19T20:05:31.732Z,16.30
2019-04-19T20:08:49.375Z,16.30
2019-04-19T20:11:20.423Z,16.20
2019-04-19T20:13:49.240Z,16.10
2019-04-19T20:16:16.421Z,16.00
2019-04-19T20:18:44.213Z,15.90
2019-04-19T20:21:15.891Z,15.90
2019-04-19T20:23:57.658Z,15.80
2019-04-19T20:26:18.043Z,15.70
2019-04-19T20:28:39.576Z,15.70
2019-04-19T20:31:07.588Z,15.60
2019-04-19T20:33:45.023Z,15.50
2019-04-19T20:36:08.599Z,15.30
2019-04-19T20:38:40.464Z,15.20
2019-04-19T20:41:06.613Z,15.10
2019-04-19T20:43:46.383Z,15.00
2019-04-19T20:46:11.800Z,15.00
2019-04-19T20:48:31.726Z,14.80
2019-04-19T20:51:08.610Z,14.70
2019-04-19T20:53:39.233Z,14.70
2019-04-19T20:58:38.981Z,14.50
2019-04-19T21:00:58.902Z,14.30
2019-04-19T21:03:32.699Z,14.20
2019-04-19T21:05:54.957Z,14.20
2019-04-19T21:08:24.614Z,14.00
2019-04-19T21:10:56.875Z,14.00
2019-04-19T21:13:21.071Z,13.90
2019-04-19T21:15:48.564Z,13.80
2019-04-19T21:18:22.662Z,13.70
2019-04-19T21:20:46.740Z,13.60
2019-04-19T21:23:21.384Z,13.50
2019-04-19T21:25:49.483Z,13.40
2019-04-19T21:28:10.551Z,13.40
2019-04-19T21:30:40.064Z,13.30
2019-04-19T21:33:20.512Z,13.20
2019-04-19T21:35:53.012Z,13.20
2019-04-19T21:38:19.972Z,13.10
2019-04-19T21:40:45.277Z,13.00
2019-04-19T21:43:12.955Z,13.00
2019-04-19T21:45:43.206Z,13.00
2019-04-19T21:48:08.876Z,13.00
2019-04-19T21:50:41.029Z,13.00
2019-04-19T21:53:07.425Z,13.00
2019-04-19T21:55:37.442Z,13.10
2019-04-19T21:58:07.005Z,13.20
2019-04-19T22:01:00.001Z,13.20
2019-04-19T22:03:26.641Z,13.30
2019-04-19T22:06:20.877Z,13.30
2019-04-19T22:08:42.215Z,13.40
2019-04-19T22:11:08.955Z,13.40
2019-04-19T22:13:40.745Z,13.40
2019-04-19T22:16:04.524Z,13.40
2019-04-19T22:18:39.734Z,13.40
2019-04-19T22:21:06.762Z,13.40
2019-04-19T22:23:35.008Z,13.30
2019-04-19T22:26:14.494Z,13.30
2019-04-19T22:28:31.626Z,13.30
2019-04-19T22:30:59.481Z,13.20
2019-04-19T22:33:28.292Z,13.10
2019-04-19T22:36:00.125Z,13.10
2019-04-19T22:38:24.204Z,13.00
2019-04-19T22:40:52.628Z,13.00
2019-04-19T22:43:20.558Z,12.90
2019-04-19T22:45:49.266Z,12.90
2019-04-19T22:48:21.203Z,12.90
2019-04-19T22:50:46.873Z,12.80
2019-04-19T22:53:17.232Z,12.80
2019-04-19T22:55:48.365Z,12.70
2019-04-19T22:58:16.659Z,12.70
2019-04-19T23:00:41.828Z,12.60
2019-04-19T23:03:08.523Z,12.60
2019-04-19T23:05:40.101Z,12.60
2019-04-19T23:08:06.204Z,12.50
2019-04-19T23:10:41.965Z,12.50
2019-04-19T23:13:01.945Z,12.40
2019-04-19T23:15:31.335Z,12.40
2019-04-19T23:17:57.066Z,12.30
2019-04-19T23:20:28.912Z,12.20
2019-04-19T23:22:51.735Z,12.20
2019-04-19T23:25:22.082Z,12.10
2019-04-19T23:27:51.314Z,12.10
2019-04-19T23:30:22.194Z,12.00
2019-04-19T23:32:48.233Z,11.90
2019-04-19T23:35:16.245Z,11.80
2019-04-19T23:37:43.780Z,11.70
2019-04-19T23:40:13.038Z,11.60
2019-04-19T23:42:42.375Z,11.60
2019-04-19T23:45:08.906Z,11.50
2019-04-19T23:47:41.370Z,11.40
2019-04-19T23:50:06.171Z,11.40
2019-04-19T23:52:33.099Z,11.30
2019-04-19T23:55:00.119Z,11.20
2019-04-19T23:57:35.309Z,11.10
